createdAt,value
2018-05-26T00:01:47.618Z,15.10
2018-05-26T00:04:15.206Z,15.00
2018-05-26T00:06:42.789Z,15.00
2018-05-26T00:09:11.175Z,15.00
2018-05-26T00:11:38.762Z,14.90
2018-05-26T00:14:07.107Z,14.90
2018-05-26T00:16:34.710Z,14.80
2018-05-26T00:19:03.067Z,14.80
2018-05-26T00:21:30.658Z,14.70
2018-05-26T00:23:58.273Z,14.80
2018-05-26T00:26:25.871Z,14.70
2018-05-26T00:28:53.481Z,14.70
2018-05-26T00:31:21.110Z,14.70
2018-05-26T00:33:48.682Z,14.60
2018-05-26T00:36:16.265Z,14.60
2018-05-26T00:38:43.887Z,14.60
2018-05-26T00:41:11.474Z,14.50
2018-05-26T00:43:39.844Z,14.50
2018-05-26T00:46:07.464Z,14.50
2018-05-26T00:48:35.048Z,14.50
2018-05-26T00:51:02.617Z,14.50
2018-05-26T00:53:30.239Z,14.60
2018-05-26T00:55:57.829Z,14.60
2018-05-26T00:58:26.196Z,14.50
2018-05-26T01:00:53.807Z,14.40
2018-05-26T01:03:21.394Z,14.40
2018-05-26T01:05:48.976Z,14.30
2018-05-26T01:08:16.582Z,14.30
2018-05-26T01:10:44.175Z,14.20
2018-05-26T01:13:11.752Z,14.20
2018-05-26T01:15:39.383Z,14.20
2018-05-26T01:18:06.975Z,14.20
2018-05-26T01:20:34.563Z,14.10
2018-05-26T01:23:02.183Z,14.10
2018-05-26T01:25:29.769Z,14.00
2018-05-26T01:27:57.366Z,14.00
2018-05-26T01:30:24.981Z,13.90
2018-05-26T01:32:53.350Z,13.90
2018-05-26T01:35:20.970Z,13.80
2018-05-26T01:37:48.595Z,13.80
2018-05-26T01:40:16.189Z,13.80
2018-05-26T01:42:44.550Z,13.80
2018-05-26T01:45:12.167Z,13.70
2018-05-26T01:47:39.759Z,13.70
2018-05-26T01:50:07.374Z,13.70
2018-05-26T01:52:35.000Z,13.70
2018-05-26T01:55:02.590Z,13.70
2018-05-26T01:57:30.178Z,13.60
2018-05-26T01:59:57.786Z,13.60
2018-05-26T02:02:26.167Z,13.50
2018-05-26T02:04:53.745Z,13.40
2018-05-26T02:07:21.354Z,13.50
2018-05-26T02:09:48.933Z,13.40
2018-05-26T02:12:16.518Z,13.40
2018-05-26T02:14:44.126Z,13.50
2018-05-26T02:17:11.727Z,13.50
2018-05-26T02:19:39.331Z,13.50
2018-05-26T02:22:06.948Z,13.40
2018-05-26T02:24:34.523Z,13.40
2018-05-26T02:27:02.105Z,13.30
2018-05-26T02:29:30.489Z,13.20
2018-05-26T02:31:58.097Z,13.10
2018-05-26T02:34:25.692Z,13.20
2018-05-26T02:36:53.323Z,13.20
2018-05-26T02:39:21.670Z,13.10
2018-05-26T02:41:49.267Z,13.00
2018-05-26T02:44:16.874Z,13.00
2018-05-26T02:46:44.453Z,13.00
2018-05-26T02:49:12.045Z,13.00
2018-05-26T02:51:39.703Z,13.00
2018-05-26T02:54:07.282Z,13.00
2018-05-26T02:58:54.018Z,12.90
2018-05-26T03:01:21.599Z,12.80
2018-05-26T03:03:48.705Z,12.80
2018-05-26T03:06:22.007Z,12.80
2018-05-26T03:08:55.275Z,12.70
2018-05-26T03:11:28.487Z,12.70
2018-05-26T03:14:01.721Z,12.70
2018-05-26T03:16:34.945Z,12.70
2018-05-26T03:19:02.530Z,12.60
2018-05-26T03:21:30.113Z,12.60
2018-05-26T03:23:58.494Z,12.70
2018-05-26T03:26:26.086Z,12.60
2018-05-26T03:28:54.434Z,12.60
2018-05-26T03:31:22.061Z,12.60
2018-05-26T03:33:49.638Z,12.60
2018-05-26T03:36:17.262Z,12.70
2018-05-26T03:38:44.842Z,12.70
2018-05-26T03:41:12.435Z,12.70
2018-05-26T03:43:40.809Z,12.80
2018-05-26T03:46:08.434Z,12.70
2018-05-26T03:48:36.026Z,12.80
2018-05-26T03:51:03.617Z,12.80
2018-05-26T03:53:31.262Z,12.90
2018-05-26T03:56:10.633Z,13.00
2018-05-26T03:58:50.156Z,13.00
2018-05-26T04:01:17.738Z,13.10
2018-05-26T04:03:45.328Z,13.20
2018-05-26T04:06:12.978Z,13.20
2018-05-26T04:08:40.604Z,13.30
2018-05-26T04:11:08.199Z,13.50
2018-05-26T04:13:37.001Z,13.60
2018-05-26T04:16:05.350Z,13.70
2018-05-26T04:18:32.937Z,13.60
2018-05-26T04:21:00.551Z,13.70
2018-05-26T04:23:28.155Z,13.80
2018-05-26T04:25:55.744Z,13.80
2018-05-26T04:28:23.353Z,13.90
2018-05-26T04:30:51.693Z,14.10
2018-05-26T04:33:19.274Z,14.00
2018-05-26T04:35:46.902Z,14.30
2018-05-26T04:38:14.495Z,14.40
2018-05-26T04:40:42.107Z,14.60
2018-05-26T04:43:09.751Z,14.60
2018-05-26T04:45:37.343Z,14.70
2018-05-26T04:48:04.921Z,14.80
2018-05-26T04:50:32.534Z,14.90
2018-05-26T04:53:00.890Z,15.10
2018-05-26T04:55:28.449Z,15.00
2018-05-26T04:57:56.063Z,15.20
2018-05-26T05:00:23.631Z,15.40
2018-05-26T05:02:51.222Z,15.60
2018-05-26T05:05:18.842Z,15.70
2018-05-26T05:07:46.406Z,15.90
2018-05-26T05:10:13.966Z,15.90
2018-05-26T05:12:42.330Z,16.10
2018-05-26T05:15:10.709Z,16.30
2018-05-26T05:17:38.274Z,16.20
2018-05-26T05:20:05.875Z,16.50
2018-05-26T05:22:33.442Z,16.60
2018-05-26T05:25:01.008Z,16.90
2018-05-26T05:27:28.599Z,17.20
2018-05-26T05:29:57.185Z,17.80
2018-05-26T05:32:24.765Z,17.70
2018-05-26T05:34:53.118Z,18.10
2018-05-26T05:37:20.682Z,18.00
2018-05-26T05:39:48.266Z,18.30
2018-05-26T05:42:15.863Z,18.50
2018-05-26T05:44:43.423Z,18.70
2018-05-26T05:47:11.164Z,18.80
2018-05-26T05:49:38.792Z,18.90
2018-05-26T05:52:06.392Z,19.10
2018-05-26T05:54:34.051Z,19.30
2018-05-26T05:57:02.411Z,19.60
2018-05-26T05:59:29.981Z,19.50
2018-05-26T06:01:57.614Z,19.70
2018-05-26T06:04:25.189Z,19.90
2018-05-26T06:06:52.750Z,20.00
2018-05-26T06:09:20.314Z,20.30
2018-05-26T06:11:48.658Z,20.90
2018-05-26T06:14:16.227Z,20.90
2018-05-26T06:16:43.788Z,21.30
2018-05-26T06:19:11.386Z,21.30
2018-05-26T06:21:38.946Z,21.60
2018-05-26T06:24:06.510Z,22.00
2018-05-26T06:26:34.126Z,22.20
2018-05-26T06:29:02.478Z,22.50
2018-05-26T06:31:30.047Z,22.40
2018-05-26T06:33:57.630Z,22.80
2018-05-26T06:36:25.183Z,23.40
2018-05-26T06:38:52.736Z,24.40
2018-05-26T06:41:20.323Z,25.50
2018-05-26T06:43:47.884Z,26.10
2018-05-26T06:46:15.446Z,26.60
2018-05-26T06:48:43.794Z,28.00
2018-05-26T06:51:11.349Z,27.90
2018-05-26T06:53:38.907Z,28.40
2018-05-26T06:56:06.485Z,28.90
2018-05-26T06:58:34.042Z,29.20
2018-05-26T07:01:01.595Z,29.20
2018-05-26T07:03:29.938Z,29.30
2018-05-26T07:05:57.495Z,29.20
2018-05-26T07:08:25.056Z,29.60
2018-05-26T07:10:52.642Z,29.30
2018-05-26T07:13:20.204Z,30.20
2018-05-26T07:15:47.755Z,30.00
2018-05-26T07:18:15.335Z,30.30
2018-05-26T07:20:42.885Z,30.30
2018-05-26T07:23:11.203Z,30.60
2018-05-26T07:25:38.786Z,30.50
2018-05-26T07:28:06.331Z,30.10
2018-05-26T07:30:33.883Z,30.70
2018-05-26T07:33:02.223Z,31.20
2018-05-26T07:35:29.766Z,31.10
2018-05-26T07:37:58.084Z,31.30
2018-05-26T07:40:25.662Z,31.30
2018-05-26T07:42:53.207Z,31.00
2018-05-26T07:45:20.750Z,32.20
2018-05-26T07:47:48.323Z,32.10
2018-05-26T07:50:15.875Z,32.80
2018-05-26T07:52:43.436Z,33.00
2018-05-26T07:55:11.019Z,32.60
2018-05-26T07:57:38.631Z,33.10
2018-05-26T08:00:06.992Z,32.40
2018-05-26T08:02:34.572Z,32.30
2018-05-26T08:05:02.181Z,32.60
2018-05-26T08:07:29.739Z,32.70
2018-05-26T08:09:58.139Z,33.60
2018-05-26T08:12:25.687Z,33.60
2018-05-26T08:14:53.238Z,34.00
2018-05-26T08:17:20.850Z,33.40
2018-05-26T08:19:48.399Z,33.50
2018-05-26T08:22:15.961Z,33.90
2018-05-26T08:24:43.548Z,33.60
2018-05-26T08:27:11.093Z,34.20
2018-05-26T08:29:38.642Z,33.50
2018-05-26T08:32:06.222Z,34.50
2018-05-26T08:34:33.766Z,34.20
2018-05-26T08:37:01.314Z,33.70
2018-05-26T08:39:29.655Z,35.00
2018-05-26T08:41:57.197Z,34.90
2018-05-26T08:44:24.772Z,34.00
2018-05-26T08:46:52.386Z,33.10
2018-05-26T08:49:19.932Z,32.70
2018-05-26T08:51:47.479Z,32.10
2018-05-26T08:54:15.814Z,33.00
2018-05-26T08:56:43.355Z,32.90
2018-05-26T08:59:10.898Z,33.70
2018-05-26T09:01:39.248Z,34.00
2018-05-26T09:04:06.794Z,34.00
2018-05-26T09:06:34.350Z,33.40
2018-05-26T09:09:02.702Z,32.10
2018-05-26T09:11:30.260Z,32.00
2018-05-26T09:13:57.810Z,31.20
2018-05-26T09:16:25.392Z,32.20
2018-05-26T09:18:52.934Z,33.90
2018-05-26T09:21:20.490Z,34.70
2018-05-26T09:23:48.273Z,34.50
2018-05-26T09:26:15.873Z,34.70
2018-05-26T09:28:43.422Z,33.90
2018-05-26T09:31:11.006Z,34.50
2018-05-26T09:33:38.558Z,33.80
2018-05-26T09:36:06.858Z,33.30
2018-05-26T09:38:34.436Z,33.20
2018-05-26T09:41:01.983Z,34.30
2018-05-26T09:43:30.312Z,34.00
2018-05-26T09:45:57.899Z,33.90
2018-05-26T09:48:25.455Z,33.00
2018-05-26T09:50:53.059Z,32.00
2018-05-26T09:53:20.678Z,30.80
2018-05-26T09:55:48.235Z,29.90
2018-05-26T09:58:16.546Z,28.10
2018-05-26T10:00:44.113Z,28.00
2018-05-26T10:03:12.431Z,28.10
2018-05-26T10:05:39.979Z,28.10
2018-05-26T10:08:07.564Z,29.60
2018-05-26T10:10:35.113Z,30.40
2018-05-26T10:13:03.430Z,32.40
2018-05-26T10:15:31.008Z,32.30
2018-05-26T10:17:58.563Z,32.10
2018-05-26T10:20:26.123Z,31.80
2018-05-26T10:22:54.457Z,31.50
2018-05-26T10:25:22.006Z,31.50
2018-05-26T10:27:49.561Z,30.80
2018-05-26T10:30:17.903Z,31.40
2018-05-26T10:32:45.455Z,31.30
2018-05-26T10:35:13.023Z,31.40
2018-05-26T10:37:40.601Z,31.70
2018-05-26T10:40:08.159Z,31.70
2018-05-26T10:42:35.707Z,31.70
2018-05-26T10:45:04.051Z,30.20
2018-05-26T10:47:31.612Z,30.10
2018-05-26T10:49:59.274Z,29.60
2018-05-26T10:52:26.831Z,30.10
2018-05-26T10:54:54.376Z,29.90
2018-05-26T10:57:22.687Z,29.30
2018-05-26T10:59:50.336Z,29.20
2018-05-26T11:02:17.878Z,29.20
2018-05-26T11:04:45.426Z,29.00
2018-05-26T11:07:13.002Z,28.40
2018-05-26T11:09:40.553Z,28.30
2018-05-26T11:12:08.106Z,28.10
2018-05-26T11:14:36.459Z,27.90
2018-05-26T11:17:04.042Z,27.80
2018-05-26T11:19:31.598Z,28.00
2018-05-26T11:21:59.213Z,28.00
2018-05-26T11:24:27.546Z,27.90
2018-05-26T11:26:55.084Z,27.80
2018-05-26T11:29:23.424Z,29.20
2018-05-26T11:31:50.967Z,29.20
2018-05-26T11:34:18.507Z,29.80
2018-05-26T11:36:46.887Z,30.00
2018-05-26T11:39:14.439Z,29.90
2018-05-26T11:41:41.985Z,29.40
2018-05-26T11:44:09.568Z,28.80
2018-05-26T11:46:37.129Z,28.40
2018-05-26T11:49:04.675Z,28.20
2018-05-26T11:51:33.019Z,27.50
2018-05-26T11:54:00.659Z,27.50
2018-05-26T11:56:28.210Z,27.30
2018-05-26T11:58:56.547Z,27.40
2018-05-26T12:01:24.090Z,27.30
2018-05-26T12:03:51.632Z,27.50
2018-05-26T12:06:19.211Z,27.60
2018-05-26T12:08:47.524Z,27.70
2018-05-26T12:11:15.090Z,27.60
2018-05-26T12:13:42.676Z,27.50
2018-05-26T12:16:10.222Z,27.40
2018-05-26T12:18:38.545Z,27.70
2018-05-26T12:21:06.123Z,27.60
2018-05-26T12:23:33.660Z,27.90
2018-05-26T12:26:01.975Z,27.80
2018-05-26T12:28:29.563Z,27.70
2018-05-26T12:30:57.133Z,27.60
2018-05-26T12:33:24.686Z,27.70
2018-05-26T12:35:52.275Z,27.70
2018-05-26T12:38:19.829Z,27.90
2018-05-26T12:40:47.387Z,28.10
2018-05-26T12:43:15.730Z,28.60
2018-05-26T12:45:43.289Z,28.50
2018-05-26T12:48:10.945Z,28.30
2018-05-26T12:50:38.519Z,27.70
2018-05-26T12:53:06.075Z,27.60
2018-05-26T12:55:34.392Z,27.60
2018-05-26T12:58:01.983Z,27.50
2018-05-26T13:00:29.533Z,27.50
2018-05-26T13:02:57.096Z,27.50
2018-05-26T13:05:24.671Z,27.40
2018-05-26T13:07:52.228Z,27.20
2018-05-26T13:10:19.805Z,26.90
2018-05-26T13:12:47.367Z,26.90
2018-05-26T13:15:15.815Z,26.40
2018-05-26T13:17:43.382Z,26.30
2018-05-26T13:20:10.950Z,26.40
2018-05-26T13:22:38.527Z,26.50
2018-05-26T13:25:06.097Z,26.60
2018-05-26T13:27:33.843Z,26.40
2018-05-26T13:30:01.414Z,26.20
2018-05-26T13:32:29.811Z,26.20
2018-05-26T13:34:57.652Z,26.10
2018-05-26T13:37:25.261Z,26.00
2018-05-26T13:39:52.867Z,26.00
2018-05-26T13:42:20.461Z,26.00
2018-05-26T13:44:48.047Z,26.10
2018-05-26T13:47:15.644Z,26.10
2018-05-26T13:49:44.202Z,26.00
2018-05-26T13:52:11.799Z,26.00
2018-05-26T13:54:39.377Z,26.10
2018-05-26T13:57:08.115Z,26.30
2018-05-26T13:59:35.689Z,26.30
2018-05-26T14:02:03.230Z,26.50
2018-05-26T14:04:31.552Z,26.60
2018-05-26T14:06:59.138Z,26.50
2018-05-26T14:09:26.695Z,26.70
2018-05-26T14:11:54.608Z,26.70
2018-05-26T14:14:22.158Z,26.90
2018-05-26T14:16:49.730Z,26.70
2018-05-26T14:19:17.305Z,26.60
2018-05-26T14:21:44.864Z,26.50
2018-05-26T14:24:12.666Z,26.40
2018-05-26T14:26:40.239Z,26.40
2018-05-26T14:29:07.781Z,26.10
2018-05-26T14:31:35.397Z,26.00
2018-05-26T14:34:02.971Z,26.10
2018-05-26T14:36:30.547Z,26.00
2018-05-26T14:38:58.087Z,25.90
2018-05-26T14:41:25.914Z,26.00
2018-05-26T14:43:53.485Z,26.00
2018-05-26T14:46:21.843Z,26.00
2018-05-26T14:48:49.413Z,26.00
2018-05-26T14:51:16.963Z,26.00
2018-05-26T14:53:44.514Z,25.90
2018-05-26T14:56:12.842Z,25.90
2018-05-26T14:58:40.417Z,25.80
2018-05-26T15:01:07.999Z,25.90
2018-05-26T15:03:35.561Z,25.90
2018-05-26T15:06:03.105Z,25.90
2018-05-26T15:08:30.672Z,26.00
2018-05-26T15:10:58.232Z,26.00
2018-05-26T15:13:26.630Z,25.90
2018-05-26T15:15:54.161Z,25.80
2018-05-26T15:18:21.715Z,26.00
2018-05-26T15:20:49.292Z,26.00
2018-05-26T15:23:16.862Z,26.00
2018-05-26T15:25:44.433Z,26.00
2018-05-26T15:28:12.005Z,26.00
2018-05-26T15:30:39.571Z,26.00
2018-05-26T15:33:07.161Z,26.10
2018-05-26T15:35:34.723Z,26.10
2018-05-26T15:38:02.268Z,26.10
2018-05-26T15:40:30.614Z,26.00
2018-05-26T15:42:58.175Z,26.00
2018-05-26T15:45:25.750Z,26.10
2018-05-26T15:47:53.322Z,26.10
2018-05-26T15:50:20.880Z,26.10
2018-05-26T15:52:48.442Z,26.00
2018-05-26T15:55:15.983Z,26.00
2018-05-26T15:57:44.334Z,26.10
2018-05-26T16:00:12.105Z,26.00
2018-05-26T16:02:39.666Z,26.00
2018-05-26T16:05:07.233Z,26.00
2018-05-26T16:07:34.778Z,26.00
2018-05-26T16:10:03.125Z,26.10
2018-05-26T16:12:30.674Z,26.00
2018-05-26T16:14:58.228Z,26.10
2018-05-26T16:17:25.815Z,25.90
2018-05-26T16:19:53.387Z,26.00
2018-05-26T16:22:21.000Z,26.00
2018-05-26T16:24:48.537Z,25.90
2018-05-26T16:27:16.092Z,25.90
2018-05-26T16:29:43.717Z,26.00
2018-05-26T16:32:11.323Z,25.90
2018-05-26T16:34:39.680Z,25.90
2018-05-26T16:37:08.093Z,25.80
2018-05-26T16:39:36.469Z,25.80
2018-05-26T16:42:04.040Z,25.80
2018-05-26T16:44:31.612Z,25.90
2018-05-26T16:46:59.329Z,25.80
2018-05-26T16:49:26.988Z,25.80
2018-05-26T16:51:54.655Z,25.80
2018-05-26T16:54:22.310Z,25.80
2018-05-26T16:56:49.889Z,25.80
2018-05-26T16:59:17.513Z,25.80
2018-05-26T17:01:48.526Z,25.80
2018-05-26T17:04:16.343Z,25.80
2018-05-26T17:06:45.605Z,25.70
2018-05-26T17:09:13.141Z,25.70
2018-05-26T17:11:40.889Z,25.60
2018-05-26T17:14:09.224Z,25.60
2018-05-26T17:16:37.261Z,25.50
2018-05-26T17:19:04.943Z,25.60
2018-05-26T17:21:32.567Z,25.60
2018-05-26T17:24:00.167Z,25.60
2018-05-26T17:26:28.531Z,25.40
2018-05-26T17:28:56.764Z,25.40
2018-05-26T17:31:24.418Z,25.30
2018-05-26T17:33:51.975Z,25.30
2018-05-26T17:36:19.647Z,25.20
2018-05-26T17:38:47.333Z,25.10
2018-05-26T17:41:14.953Z,25.00
2018-05-26T17:43:42.526Z,25.00
2018-05-26T17:46:10.095Z,25.00
2018-05-26T17:48:37.674Z,24.90
2018-05-26T17:51:05.233Z,24.80
2018-05-26T17:53:32.794Z,24.70
2018-05-26T17:56:00.434Z,24.60
2018-05-26T17:58:28.011Z,24.40
2018-05-26T18:00:55.588Z,24.30
2018-05-26T18:03:23.134Z,24.10
2018-05-26T18:05:50.695Z,24.00
2018-05-26T18:08:18.292Z,23.90
2018-05-26T18:10:45.875Z,23.80
2018-05-26T18:13:13.454Z,23.70
2018-05-26T18:15:41.006Z,23.50
2018-05-26T18:18:08.563Z,23.40
2018-05-26T18:20:36.147Z,23.30
2018-05-26T18:23:03.710Z,23.20
2018-05-26T18:25:31.290Z,23.10
2018-05-26T18:27:58.839Z,23.00
2018-05-26T18:30:26.391Z,22.90
2018-05-26T18:32:54.735Z,22.70
2018-05-26T18:35:22.292Z,22.60
2018-05-26T18:37:49.894Z,22.50
2018-05-26T18:40:17.471Z,22.50
2018-05-26T18:42:45.035Z,22.40
2018-05-26T18:45:12.634Z,22.30
2018-05-26T18:47:40.949Z,22.10
2018-05-26T18:50:08.539Z,22.00
2018-05-26T18:52:36.099Z,22.00
2018-05-26T18:55:03.655Z,21.90
2018-05-26T18:57:31.997Z,21.60
2018-05-26T18:59:59.553Z,21.60
2018-05-26T19:02:27.136Z,21.50
2018-05-26T19:04:54.698Z,21.40
2018-05-26T19:07:22.263Z,21.30
2018-05-26T19:09:49.829Z,21.10
2018-05-26T19:12:17.377Z,21.00
2018-05-26T19:14:44.991Z,20.90
2018-05-26T19:17:12.551Z,20.80
2018-05-26T19:19:40.104Z,20.80
2018-05-26T19:22:07.691Z,20.70
2018-05-26T19:24:35.246Z,20.60
2018-05-26T19:27:02.799Z,20.50
2018-05-26T19:29:31.143Z,20.30
2018-05-26T19:31:58.706Z,20.30
2018-05-26T19:34:26.282Z,20.20
2018-05-26T19:36:53.958Z,20.10
2018-05-26T19:39:21.446Z,20.00
2018-05-26T19:41:49.026Z,19.90
2018-05-26T19:44:16.591Z,19.80
2018-05-26T19:46:44.151Z,19.80
2018-05-26T19:49:11.730Z,19.70
2018-05-26T19:51:39.291Z,19.60
2018-05-26T19:54:06.869Z,19.50
2018-05-26T19:56:34.435Z,19.50
2018-05-26T19:59:02.033Z,19.40
2018-05-26T20:01:29.592Z,19.30
2018-05-26T20:03:57.150Z,19.20
2018-05-26T20:06:24.751Z,19.20
2018-05-26T20:08:52.314Z,19.10
2018-05-26T20:11:19.875Z,19.00
2018-05-26T20:13:47.446Z,18.90
2018-05-26T20:16:14.999Z,18.90
2018-05-26T20:18:42.593Z,18.80
2018-05-26T20:21:10.145Z,18.70
2018-05-26T20:23:37.698Z,18.70
2018-05-26T20:26:06.048Z,18.60
2018-05-26T20:28:33.602Z,18.50
2018-05-26T20:31:01.191Z,18.50
2018-05-26T20:33:28.754Z,18.50
2018-05-26T20:35:57.247Z,18.50
2018-05-26T20:38:24.830Z,18.40
2018-05-26T20:40:52.395Z,18.30
2018-05-26T20:43:19.976Z,18.20
2018-05-26T20:45:47.531Z,18.10
2018-05-26T20:48:15.091Z,18.10
2018-05-26T20:50:42.673Z,18.10
2018-05-26T20:53:10.239Z,18.10
2018-05-26T20:55:37.826Z,18.00
2018-05-26T20:58:05.386Z,18.00
2018-05-26T21:00:32.942Z,18.00
2018-05-26T21:03:00.518Z,17.90
2018-05-26T21:05:28.104Z,17.90
2018-05-26T21:07:55.702Z,17.80
2018-05-26T21:10:23.272Z,17.80
2018-05-26T21:12:50.829Z,17.80
2018-05-26T21:15:18.402Z,17.80
2018-05-26T21:17:45.974Z,17.80
2018-05-26T21:20:13.567Z,17.80
2018-05-26T21:22:41.125Z,17.70
2018-05-26T21:25:08.691Z,17.70
2018-05-26T21:27:36.327Z,17.70
2018-05-26T21:30:03.883Z,17.70
2018-05-26T21:32:31.635Z,17.70
2018-05-26T21:34:59.239Z,17.70
2018-05-26T21:37:27.578Z,17.70
2018-05-26T21:39:55.258Z,17.60
2018-05-26T21:42:22.840Z,17.50
2018-05-26T21:44:50.430Z,17.60
2018-05-26T21:47:17.986Z,17.60
2018-05-26T21:49:45.550Z,17.60
2018-05-26T21:52:13.222Z,17.50
2018-05-26T21:54:40.794Z,17.50
2018-05-26T21:57:08.379Z,17.50
2018-05-26T21:59:36.899Z,17.40
2018-05-26T22:02:04.470Z,17.40
2018-05-26T22:04:32.038Z,17.40
2018-05-26T22:06:59.606Z,17.30
2018-05-26T22:09:27.215Z,17.20
2018-05-26T22:11:54.795Z,17.30
2018-05-26T22:14:22.409Z,17.20
2018-05-26T22:16:49.955Z,17.20
2018-05-26T22:19:17.510Z,17.10
2018-05-26T22:21:45.094Z,17.10
2018-05-26T22:24:12.656Z,17.00
2018-05-26T22:26:40.211Z,16.90
2018-05-26T22:29:08.559Z,16.90
2018-05-26T22:31:36.118Z,16.80
2018-05-26T22:34:03.711Z,16.80
2018-05-26T22:36:31.266Z,16.70
2018-05-26T22:38:58.827Z,16.70
2018-05-26T22:41:26.415Z,16.70
2018-05-26T22:43:53.972Z,16.60
2018-05-26T22:46:21.559Z,16.60
2018-05-26T22:48:49.118Z,16.50
2018-05-26T22:51:16.669Z,16.40
2018-05-26T22:53:44.262Z,16.40
2018-05-26T22:56:11.819Z,16.30
2018-05-26T22:58:39.401Z,16.30
2018-05-26T23:01:06.960Z,16.20
2018-05-26T23:03:34.531Z,16.10
2018-05-26T23:06:02.115Z,16.10
2018-05-26T23:08:29.674Z,16.10
2018-05-26T23:10:57.312Z,16.00
2018-05-26T23:13:24.862Z,15.90
2018-05-26T23:15:52.427Z,15.90
2018-05-26T23:18:20.005Z,15.80
2018-05-26T23:20:47.562Z,15.80
2018-05-26T23:23:15.179Z,15.70
2018-05-26T23:25:42.760Z,15.70
2018-05-26T23:28:10.646Z,15.70
2018-05-26T23:30:38.251Z,15.70
2018-05-26T23:33:05.838Z,15.60
2018-05-26T23:35:33.453Z,15.60
2018-05-26T23:38:01.822Z,15.50
2018-05-26T23:40:29.412Z,15.40
2018-05-26T23:42:56.994Z,15.40
2018-05-26T23:45:24.582Z,15.40
2018-05-26T23:47:52.202Z,15.40
2018-05-26T23:50:19.768Z,15.40
2018-05-26T23:52:47.335Z,15.30
2018-05-26T23:55:14.948Z,15.20
2018-05-26T23:57:42.510Z,15.20
